sensor_id;sensor_type;location;lat;lon;timestamp;P1;durP1;ratioP1;P2;durP2;ratioP2
59458;SDS011;45269;43.568;22.244;2023-11-21T00:01:06;142.00;;;115.25;;
59458;SDS011;45269;43.568;22.244;2023-11-21T00:03:33;273.25;;;231.13;;
59458;SDS011;45269;43.568;22.244;2023-11-21T00:05:59;217.48;;;177.90;;
59458;SDS011;45269;43.568;22.244;2023-11-21T00:08:25;81.15;;;64.80;;
59458;SDS011;45269;43.568;22.244;2023-11-21T00:10:51;64.88;;;49.60;;
59458;SDS011;45269;43.568;22.244;2023-11-21T00:13:16;51.60;;;40.13;;
59458;SDS011;45269;43.568;22.244;2023-11-21T00:15:41;53.97;;;43.15;;
59458;SDS011;45269;43.568;22.244;2023-11-21T00:18:07;58.83;;;46.22;;
59458;SDS011;45269;43.568;22.244;2023-11-21T00:20:32;54.83;;;43.65;;
59458;SDS011;45269;43.568;22.244;2023-11-21T00:22:57;90.40;;;73.18;;
59458;SDS011;45269;43.568;22.244;2023-11-21T00:25:24;70.85;;;56.88;;
59458;SDS011;45269;43.568;22.244;2023-11-21T00:27:49;67.57;;;52.63;;
59458;SDS011;45269;43.568;22.244;2023-11-21T00:30:15;65.07;;;50.38;;
59458;SDS011;45269;43.568;22.244;2023-11-21T00:32:40;124.38;;;97.60;;
59458;SDS011;45269;43.568;22.244;2023-11-21T00:35:06;119.68;;;94.95;;
59458;SDS011;45269;43.568;22.244;2023-11-21T00:37:31;130.82;;;99.45;;
59458;SDS011;45269;43.568;22.244;2023-11-21T00:39:57;182.50;;;129.43;;
59458;SDS011;45269;43.568;22.244;2023-11-21T00:42:22;130.00;;;96.00;;
59458;SDS011;45269;43.568;22.244;2023-11-21T00:44:48;58.00;;;45.95;;
59458;SDS011;45269;43.568;22.244;2023-11-21T00:47:13;57.25;;;48.22;;
59458;SDS011;45269;43.568;22.244;2023-11-21T00:49:38;56.80;;;41.92;;
59458;SDS011;45269;43.568;22.244;2023-11-21T00:52:04;59.80;;;47.17;;
59458;SDS011;45269;43.568;22.244;2023-11-21T00:54:29;73.30;;;55.42;;
59458;SDS011;45269;43.568;22.244;2023-11-21T00:56:55;73.38;;;55.85;;
59458;SDS011;45269;43.568;22.244;2023-11-21T00:59:21;89.75;;;73.50;;
59458;SDS011;45269;43.568;22.244;2023-11-21T01:01:48;106.32;;;87.20;;
59458;SDS011;45269;43.568;22.244;2023-11-21T01:04:13;66.22;;;53.30;;
59458;SDS011;45269;43.568;22.244;2023-11-21T01:06:38;59.88;;;49.42;;
59458;SDS011;45269;43.568;22.244;2023-11-21T01:09:04;48.00;;;38.85;;
59458;SDS011;45269;43.568;22.244;2023-11-21T01:11:34;43.95;;;36.00;;
59458;SDS011;45269;43.568;22.244;2023-11-21T01:14:01;50.55;;;41.95;;
59458;SDS011;45269;43.568;22.244;2023-11-21T01:16:28;66.78;;;55.28;;
59458;SDS011;45269;43.568;22.244;2023-11-21T01:18:53;62.10;;;51.83;;
59458;SDS011;45269;43.568;22.244;2023-11-21T01:21:19;59.67;;;51.92;;
59458;SDS011;45269;43.568;22.244;2023-11-21T01:23:44;72.80;;;61.08;;
59458;SDS011;45269;43.568;22.244;2023-11-21T01:26:09;71.43;;;56.60;;
59458;SDS011;45269;43.568;22.244;2023-11-21T01:28:35;48.67;;;40.15;;
59458;SDS011;45269;43.568;22.244;2023-11-21T01:31:01;38.38;;;30.30;;
59458;SDS011;45269;43.568;22.244;2023-11-21T01:33:27;40.17;;;32.92;;
59458;SDS011;45269;43.568;22.244;2023-11-21T01:35:53;48.45;;;37.63;;
59458;SDS011;45269;43.568;22.244;2023-11-21T01:38:20;40.67;;;33.83;;
59458;SDS011;45269;43.568;22.244;2023-11-21T01:40:45;41.00;;;34.15;;
59458;SDS011;45269;43.568;22.244;2023-11-21T01:43:10;53.15;;;44.13;;
59458;SDS011;45269;43.568;22.244;2023-11-21T01:45:36;47.50;;;40.75;;
59458;SDS011;45269;43.568;22.244;2023-11-21T01:48:02;41.05;;;33.85;;
59458;SDS011;45269;43.568;22.244;2023-11-21T01:50:28;34.63;;;27.63;;
59458;SDS011;45269;43.568;22.244;2023-11-21T01:52:53;35.47;;;27.83;;
59458;SDS011;45269;43.568;22.244;2023-11-21T01:55:19;52.42;;;40.53;;
59458;SDS011;45269;43.568;22.244;2023-11-21T01:57:47;52.35;;;36.78;;
59458;SDS011;45269;43.568;22.244;2023-11-21T02:00:13;48.47;;;34.20;;
59458;SDS011;45269;43.568;22.244;2023-11-21T02:02:42;38.90;;;29.70;;
59458;SDS011;45269;43.568;22.244;2023-11-21T02:05:08;37.45;;;29.23;;
59458;SDS011;45269;43.568;22.244;2023-11-21T02:07:34;47.13;;;37.42;;
59458;SDS011;45269;43.568;22.244;2023-11-21T02:09:59;55.65;;;43.80;;
59458;SDS011;45269;43.568;22.244;2023-11-21T02:12:25;49.85;;;40.17;;
59458;SDS011;45269;43.568;22.244;2023-11-21T02:14:51;40.90;;;31.35;;
59458;SDS011;45269;43.568;22.244;2023-11-21T02:17:17;51.97;;;40.33;;
59458;SDS011;45269;43.568;22.244;2023-11-21T02:19:43;55.67;;;41.05;;
59458;SDS011;45269;43.568;22.244;2023-11-21T02:22:09;51.33;;;41.33;;
59458;SDS011;45269;43.568;22.244;2023-11-21T02:24:35;54.22;;;42.40;;
59458;SDS011;45269;43.568;22.244;2023-11-21T02:27:01;58.05;;;44.63;;
59458;SDS011;45269;43.568;22.244;2023-11-21T02:29:27;78.55;;;61.53;;
59458;SDS011;45269;43.568;22.244;2023-11-21T02:31:53;52.75;;;44.00;;
59458;SDS011;45269;43.568;22.244;2023-11-21T02:34:19;51.42;;;42.17;;
59458;SDS011;45269;43.568;22.244;2023-11-21T02:36:45;33.47;;;26.17;;
59458;SDS011;45269;43.568;22.244;2023-11-21T02:39:10;42.22;;;33.47;;
59458;SDS011;45269;43.568;22.244;2023-11-21T02:41:38;59.83;;;48.03;;
59458;SDS011;45269;43.568;22.244;2023-11-21T02:44:04;68.07;;;49.63;;
59458;SDS011;45269;43.568;22.244;2023-11-21T02:46:31;64.22;;;46.25;;
59458;SDS011;45269;43.568;22.244;2023-11-21T02:48:59;59.42;;;43.67;;
59458;SDS011;45269;43.568;22.244;2023-11-21T02:51:24;115.82;;;90.65;;
59458;SDS011;45269;43.568;22.244;2023-11-21T02:53:49;119.60;;;83.85;;
59458;SDS011;45269;43.568;22.244;2023-11-21T02:56:16;90.60;;;66.10;;
59458;SDS011;45269;43.568;22.244;2023-11-21T02:58:42;99.00;;;74.75;;
59458;SDS011;45269;43.568;22.244;2023-11-21T03:01:09;100.00;;;76.15;;
59458;SDS011;45269;43.568;22.244;2023-11-21T03:03:34;95.15;;;68.15;;
59458;SDS011;45269;43.568;22.244;2023-11-21T03:06:00;85.32;;;62.80;;
59458;SDS011;45269;43.568;22.244;2023-11-21T03:08:25;91.13;;;78.30;;
59458;SDS011;45269;43.568;22.244;2023-11-21T03:10:50;55.28;;;47.15;;
59458;SDS011;45269;43.568;22.244;2023-11-21T03:13:16;40.25;;;33.75;;
59458;SDS011;45269;43.568;22.244;2023-11-21T03:15:41;28.33;;;23.15;;
59458;SDS011;45269;43.568;22.244;2023-11-21T03:18:07;43.50;;;35.28;;
59458;SDS011;45269;43.568;22.244;2023-11-21T03:20:33;38.38;;;30.98;;
59458;SDS011;45269;43.568;22.244;2023-11-21T03:22:59;37.33;;;32.47;;
59458;SDS011;45269;43.568;22.244;2023-11-21T03:25:25;28.20;;;23.45;;
59458;SDS011;45269;43.568;22.244;2023-11-21T03:27:51;28.08;;;24.00;;
59458;SDS011;45269;43.568;22.244;2023-11-21T03:30:18;35.50;;;24.73;;
59458;SDS011;45269;43.568;22.244;2023-11-21T03:32:44;29.08;;;24.08;;
59458;SDS011;45269;43.568;22.244;2023-11-21T03:35:09;32.65;;;25.48;;
59458;SDS011;45269;43.568;22.244;2023-11-21T03:37:35;37.75;;;28.52;;
59458;SDS011;45269;43.568;22.244;2023-11-21T03:40:00;46.65;;;31.55;;
59458;SDS011;45269;43.568;22.244;2023-11-21T03:42:25;44.90;;;30.02;;
59458;SDS011;45269;43.568;22.244;2023-11-21T03:44:51;38.38;;;30.17;;
59458;SDS011;45269;43.568;22.244;2023-11-21T03:47:17;24.25;;;20.73;;
59458;SDS011;45269;43.568;22.244;2023-11-21T03:49:42;22.80;;;18.23;;
59458;SDS011;45269;43.568;22.244;2023-11-21T03:52:07;25.67;;;23.05;;
59458;SDS011;45269;43.568;22.244;2023-11-21T03:54:34;22.88;;;15.40;;
59458;SDS011;45269;43.568;22.244;2023-11-21T03:56:59;34.28;;;23.67;;
59458;SDS011;45269;43.568;22.244;2023-11-21T03:59:24;30.27;;;23.52;;
59458;SDS011;45269;43.568;22.244;2023-11-21T04:01:50;35.00;;;29.08;;
59458;SDS011;45269;43.568;22.244;2023-11-21T04:04:15;28.42;;;22.23;;
59458;SDS011;45269;43.568;22.244;2023-11-21T04:06:41;62.38;;;34.38;;
59458;SDS011;45269;43.568;22.244;2023-11-21T04:09:06;49.42;;;27.08;;
59458;SDS011;45269;43.568;22.244;2023-11-21T04:11:31;36.78;;;23.05;;
59458;SDS011;45269;43.568;22.244;2023-11-21T04:13:57;32.90;;;21.55;;
59458;SDS011;45269;43.568;22.244;2023-11-21T04:16:22;23.90;;;15.70;;
59458;SDS011;45269;43.568;22.244;2023-11-21T04:18:47;29.55;;;18.98;;
59458;SDS011;45269;43.568;22.244;2023-11-21T04:21:13;51.60;;;34.35;;
59458;SDS011;45269;43.568;22.244;2023-11-21T04:23:38;40.08;;;28.65;;
59458;SDS011;45269;43.568;22.244;2023-11-21T04:26:05;35.03;;;26.83;;
59458;SDS011;45269;43.568;22.244;2023-11-21T04:28:30;38.88;;;25.77;;
59458;SDS011;45269;43.568;22.244;2023-11-21T04:30:55;30.27;;;22.10;;
59458;SDS011;45269;43.568;22.244;2023-11-21T04:33:21;22.05;;;16.60;;
59458;SDS011;45269;43.568;22.244;2023-11-21T04:35:47;23.88;;;18.13;;
59458;SDS011;45269;43.568;22.244;2023-11-21T04:38:13;25.65;;;18.25;;
59458;SDS011;45269;43.568;22.244;2023-11-21T04:40:38;42.90;;;30.00;;
59458;SDS011;45269;43.568;22.244;2023-11-21T04:43:05;59.13;;;43.10;;
59458;SDS011;45269;43.568;22.244;2023-11-21T04:45:31;48.53;;;40.05;;
59458;SDS011;45269;43.568;22.244;2023-11-21T04:47:56;39.83;;;33.03;;
59458;SDS011;45269;43.568;22.244;2023-11-21T04:50:21;39.67;;;30.80;;
59458;SDS011;45269;43.568;22.244;2023-11-21T04:52:47;43.15;;;30.73;;
59458;SDS011;45269;43.568;22.244;2023-11-21T04:55:12;46.38;;;33.13;;
59458;SDS011;45269;43.568;22.244;2023-11-21T04:57:38;34.97;;;28.17;;
59458;SDS011;45269;43.568;22.244;2023-11-21T05:00:03;29.48;;;25.35;;
59458;SDS011;45269;43.568;22.244;2023-11-21T05:02:31;31.88;;;27.80;;
59458;SDS011;45269;43.568;22.244;2023-11-21T05:04:56;30.33;;;25.48;;
59458;SDS011;45269;43.568;22.244;2023-11-21T05:07:22;24.75;;;20.30;;
59458;SDS011;45269;43.568;22.244;2023-11-21T05:09:47;33.38;;;24.95;;
59458;SDS011;45269;43.568;22.244;2023-11-21T05:12:13;44.03;;;30.73;;
59458;SDS011;45269;43.568;22.244;2023-11-21T05:14:39;32.78;;;23.88;;
59458;SDS011;45269;43.568;22.244;2023-11-21T05:17:05;26.17;;;20.48;;
59458;SDS011;45269;43.568;22.244;2023-11-21T05:19:30;26.95;;;20.17;;
59458;SDS011;45269;43.568;22.244;2023-11-21T05:21:56;36.38;;;28.27;;
59458;SDS011;45269;43.568;22.244;2023-11-21T05:24:21;83.47;;;61.03;;
59458;SDS011;45269;43.568;22.244;2023-11-21T05:26:47;73.82;;;56.63;;
59458;SDS011;45269;43.568;22.244;2023-11-21T05:29:12;138.45;;;97.07;;
59458;SDS011;45269;43.568;22.244;2023-11-21T05:31:37;101.65;;;71.00;;
59458;SDS011;45269;43.568;22.244;2023-11-21T05:34:03;109.18;;;76.50;;
59458;SDS011;45269;43.568;22.244;2023-11-21T05:36:30;85.38;;;59.53;;
59458;SDS011;45269;43.568;22.244;2023-11-21T05:38:55;77.68;;;60.40;;
59458;SDS011;45269;43.568;22.244;2023-11-21T05:41:20;49.90;;;39.40;;
59458;SDS011;45269;43.568;22.244;2023-11-21T05:43:46;83.43;;;65.50;;
59458;SDS011;45269;43.568;22.244;2023-11-21T05:46:11;72.97;;;52.17;;
59458;SDS011;45269;43.568;22.244;2023-11-21T05:48:39;278.10;;;234.07;;
59458;SDS011;45269;43.568;22.244;2023-11-21T05:51:04;125.93;;;100.53;;
59458;SDS011;45269;43.568;22.244;2023-11-21T05:53:30;148.75;;;122.63;;
59458;SDS011;45269;43.568;22.244;2023-11-21T05:55:55;231.75;;;179.80;;
59458;SDS011;45269;43.568;22.244;2023-11-21T05:58:21;170.07;;;132.95;;
59458;SDS011;45269;43.568;22.244;2023-11-21T06:00:46;149.23;;;109.25;;
59458;SDS011;45269;43.568;22.244;2023-11-21T06:03:11;94.55;;;73.13;;
59458;SDS011;45269;43.568;22.244;2023-11-21T06:05:37;170.85;;;112.60;;
59458;SDS011;45269;43.568;22.244;2023-11-21T06:08:02;276.30;;;203.27;;
59458;SDS011;45269;43.568;22.244;2023-11-21T06:10:28;180.80;;;135.90;;
59458;SDS011;45269;43.568;22.244;2023-11-21T06:12:53;157.35;;;127.60;;
59458;SDS011;45269;43.568;22.244;2023-11-21T06:15:19;106.85;;;88.22;;
59458;SDS011;45269;43.568;22.244;2023-11-21T06:17:46;108.10;;;92.50;;
59458;SDS011;45269;43.568;22.244;2023-11-21T06:20:15;78.70;;;65.80;;
59458;SDS011;45269;43.568;22.244;2023-11-21T06:22:42;72.90;;;59.50;;
59458;SDS011;45269;43.568;22.244;2023-11-21T06:25:08;82.68;;;68.60;;
59458;SDS011;45269;43.568;22.244;2023-11-21T06:27:35;90.85;;;73.85;;
59458;SDS011;45269;43.568;22.244;2023-11-21T06:30:01;102.47;;;80.90;;
59458;SDS011;45269;43.568;22.244;2023-11-21T06:32:26;97.03;;;81.00;;
59458;SDS011;45269;43.568;22.244;2023-11-21T06:34:55;91.95;;;79.05;;
59458;SDS011;45269;43.568;22.244;2023-11-21T06:37:20;115.60;;;96.50;;
59458;SDS011;45269;43.568;22.244;2023-11-21T06:39:48;126.88;;;111.53;;
59458;SDS011;45269;43.568;22.244;2023-11-21T06:42:14;127.28;;;107.03;;
59458;SDS011;45269;43.568;22.244;2023-11-21T06:44:40;174.43;;;151.93;;
59458;SDS011;45269;43.568;22.244;2023-11-21T06:47:06;125.60;;;97.45;;
59458;SDS011;45269;43.568;22.244;2023-11-21T06:49:32;94.50;;;75.32;;
59458;SDS011;45269;43.568;22.244;2023-11-21T06:51:57;65.75;;;52.83;;
59458;SDS011;45269;43.568;22.244;2023-11-21T06:54:23;54.03;;;45.38;;
59458;SDS011;45269;43.568;22.244;2023-11-21T06:56:49;61.78;;;53.17;;
59458;SDS011;45269;43.568;22.244;2023-11-21T06:59:15;69.88;;;61.35;;
59458;SDS011;45269;43.568;22.244;2023-11-21T07:01:40;155.93;;;130.35;;
59458;SDS011;45269;43.568;22.244;2023-11-21T07:04:06;232.15;;;182.45;;
59458;SDS011;45269;43.568;22.244;2023-11-21T07:06:32;262.90;;;211.25;;
59458;SDS011;45269;43.568;22.244;2023-11-21T07:08:57;313.00;;;257.48;;
59458;SDS011;45269;43.568;22.244;2023-11-21T07:11:23;266.75;;;235.27;;
59458;SDS011;45269;43.568;22.244;2023-11-21T07:13:49;259.42;;;230.82;;
59458;SDS011;45269;43.568;22.244;2023-11-21T07:16:14;240.07;;;214.57;;
59458;SDS011;45269;43.568;22.244;2023-11-21T07:18:40;254.30;;;225.90;;
59458;SDS011;45269;43.568;22.244;2023-11-21T07:21:06;167.63;;;143.02;;
59458;SDS011;45269;43.568;22.244;2023-11-21T07:23:32;168.35;;;142.23;;
59458;SDS011;45269;43.568;22.244;2023-11-21T07:25:57;121.28;;;104.13;;
59458;SDS011;45269;43.568;22.244;2023-11-21T07:28:23;151.18;;;127.93;;
59458;SDS011;45269;43.568;22.244;2023-11-21T07:30:49;137.25;;;120.88;;
59458;SDS011;45269;43.568;22.244;2023-11-21T07:33:14;178.85;;;157.98;;
59458;SDS011;45269;43.568;22.244;2023-11-21T07:35:39;102.32;;;91.03;;
59458;SDS011;45269;43.568;22.244;2023-11-21T07:38:05;107.20;;;95.85;;
59458;SDS011;45269;43.568;22.244;2023-11-21T07:40:30;110.97;;;99.03;;
59458;SDS011;45269;43.568;22.244;2023-11-21T07:42:55;115.30;;;97.00;;
59458;SDS011;45269;43.568;22.244;2023-11-21T07:45:22;214.05;;;151.07;;
59458;SDS011;45269;43.568;22.244;2023-11-21T07:47:47;276.92;;;220.85;;
59458;SDS011;45269;43.568;22.244;2023-11-21T07:50:13;325.45;;;258.95;;
59458;SDS011;45269;43.568;22.244;2023-11-21T07:52:38;354.25;;;276.38;;
59458;SDS011;45269;43.568;22.244;2023-11-21T07:55:05;329.55;;;260.25;;
59458;SDS011;45269;43.568;22.244;2023-11-21T07:57:30;324.02;;;270.45;;
59458;SDS011;45269;43.568;22.244;2023-11-21T07:59:56;425.00;;;343.83;;
59458;SDS011;45269;43.568;22.244;2023-11-21T08:02:21;235.52;;;192.60;;
59458;SDS011;45269;43.568;22.244;2023-11-21T08:04:46;202.20;;;154.70;;
59458;SDS011;45269;43.568;22.244;2023-11-21T08:07:14;197.75;;;157.38;;
59458;SDS011;45269;43.568;22.244;2023-11-21T08:09:40;220.80;;;174.70;;
59458;SDS011;45269;43.568;22.244;2023-11-21T08:12:05;241.80;;;186.27;;
59458;SDS011;45269;43.568;22.244;2023-11-21T08:14:31;242.10;;;192.00;;
59458;SDS011;45269;43.568;22.244;2023-11-21T08:16:56;298.35;;;244.48;;
59458;SDS011;45269;43.568;22.244;2023-11-21T08:19:23;283.27;;;233.25;;
59458;SDS011;45269;43.568;22.244;2023-11-21T08:21:50;352.52;;;293.63;;
59458;SDS011;45269;43.568;22.244;2023-11-21T08:24:15;384.63;;;307.17;;
59458;SDS011;45269;43.568;22.244;2023-11-21T08:26:41;362.00;;;301.83;;
59458;SDS011;45269;43.568;22.244;2023-11-21T08:29:06;239.60;;;195.38;;
59458;SDS011;45269;43.568;22.244;2023-11-21T08:31:34;169.45;;;141.45;;
59458;SDS011;45269;43.568;22.244;2023-11-21T08:33:59;189.27;;;156.00;;
59458;SDS011;45269;43.568;22.244;2023-11-21T08:36:27;198.18;;;168.60;;
59458;SDS011;45269;43.568;22.244;2023-11-21T08:38:52;208.55;;;173.98;;
59458;SDS011;45269;43.568;22.244;2023-11-21T08:41:18;512.20;;;397.48;;
59458;SDS011;45269;43.568;22.244;2023-11-21T08:43:47;222.40;;;177.07;;
59458;SDS011;45269;43.568;22.244;2023-11-21T08:46:13;137.18;;;112.65;;
59458;SDS011;45269;43.568;22.244;2023-11-21T08:48:40;91.13;;;77.50;;
59458;SDS011;45269;43.568;22.244;2023-11-21T08:51:06;89.57;;;78.43;;
59458;SDS011;45269;43.568;22.244;2023-11-21T08:53:31;29.05;;;25.23;;
59458;SDS011;45269;43.568;22.244;2023-11-21T08:55:57;44.40;;;38.92;;
59458;SDS011;45269;43.568;22.244;2023-11-21T08:58:23;64.10;;;55.08;;
59458;SDS011;45269;43.568;22.244;2023-11-21T09:00:48;46.47;;;37.78;;
59458;SDS011;45269;43.568;22.244;2023-11-21T09:03:14;52.95;;;40.30;;
59458;SDS011;45269;43.568;22.244;2023-11-21T09:05:39;51.63;;;35.58;;
59458;SDS011;45269;43.568;22.244;2023-11-21T09:08:05;34.55;;;24.08;;
59458;SDS011;45269;43.568;22.244;2023-11-21T09:10:31;58.08;;;39.20;;
59458;SDS011;45269;43.568;22.244;2023-11-21T09:12:57;45.53;;;30.90;;
59458;SDS011;45269;43.568;22.244;2023-11-21T09:15:24;41.90;;;34.20;;
59458;SDS011;45269;43.568;22.244;2023-11-21T09:17:50;40.50;;;36.08;;
59458;SDS011;45269;43.568;22.244;2023-11-21T09:20:15;41.90;;;32.55;;
59458;SDS011;45269;43.568;22.244;2023-11-21T09:22:41;64.00;;;48.85;;
59458;SDS011;45269;43.568;22.244;2023-11-21T09:25:06;60.15;;;49.60;;
59458;SDS011;45269;43.568;22.244;2023-11-21T09:27:33;64.47;;;50.80;;
59458;SDS011;45269;43.568;22.244;2023-11-21T09:29:59;67.88;;;55.63;;
59458;SDS011;45269;43.568;22.244;2023-11-21T09:32:24;43.00;;;36.28;;
59458;SDS011;45269;43.568;22.244;2023-11-21T09:34:49;40.92;;;35.72;;
59458;SDS011;45269;43.568;22.244;2023-11-21T09:37:15;21.23;;;18.58;;
59458;SDS011;45269;43.568;22.244;2023-11-21T09:39:41;24.50;;;21.05;;
59458;SDS011;45269;43.568;22.244;2023-11-21T09:44:36;34.58;;;30.98;;
59458;SDS011;45269;43.568;22.244;2023-11-21T09:47:07;36.47;;;31.40;;
59458;SDS011;45269;43.568;22.244;2023-11-21T09:49:35;36.00;;;30.63;;
59458;SDS011;45269;43.568;22.244;2023-11-21T09:52:02;52.40;;;44.83;;
59458;SDS011;45269;43.568;22.244;2023-11-21T09:54:31;35.17;;;27.37;;
59458;SDS011;45269;43.568;22.244;2023-11-21T09:56:59;62.20;;;46.13;;
59458;SDS011;45269;43.568;22.244;2023-11-21T09:59:25;73.68;;;54.03;;
59458;SDS011;45269;43.568;22.244;2023-11-21T10:01:55;137.23;;;100.05;;
59458;SDS011;45269;43.568;22.244;2023-11-21T10:04:23;145.43;;;103.15;;
59458;SDS011;45269;43.568;22.244;2023-11-21T10:06:48;129.75;;;96.53;;
59458;SDS011;45269;43.568;22.244;2023-11-21T10:09:15;85.03;;;65.50;;
59458;SDS011;45269;43.568;22.244;2023-11-21T10:11:41;61.30;;;47.65;;
59458;SDS011;45269;43.568;22.244;2023-11-21T10:14:10;156.80;;;111.80;;
59458;SDS011;45269;43.568;22.244;2023-11-21T10:16:37;109.57;;;75.35;;
59458;SDS011;45269;43.568;22.244;2023-11-21T10:19:04;117.97;;;78.03;;
59458;SDS011;45269;43.568;22.244;2023-11-21T10:21:32;190.98;;;123.43;;
59458;SDS011;45269;43.568;22.244;2023-11-21T10:23:59;79.85;;;56.80;;
59458;SDS011;45269;43.568;22.244;2023-11-21T10:26:25;107.10;;;71.68;;
59458;SDS011;45269;43.568;22.244;2023-11-21T10:29:00;88.97;;;64.57;;
59458;SDS011;45269;43.568;22.244;2023-11-21T10:31:29;69.05;;;52.92;;
59458;SDS011;45269;43.568;22.244;2023-11-21T10:34:10;68.43;;;52.17;;
59458;SDS011;45269;43.568;22.244;2023-11-21T10:36:35;59.08;;;46.55;;
59458;SDS011;45269;43.568;22.244;2023-11-21T10:39:01;64.53;;;47.50;;
59458;SDS011;45269;43.568;22.244;2023-11-21T10:41:27;47.95;;;37.03;;
59458;SDS011;45269;43.568;22.244;2023-11-21T10:43:53;23.67;;;19.52;;
59458;SDS011;45269;43.568;22.244;2023-11-21T10:46:18;24.90;;;22.05;;
59458;SDS011;45269;43.568;22.244;2023-11-21T10:48:43;29.00;;;23.50;;
59458;SDS011;45269;43.568;22.244;2023-11-21T10:51:09;18.70;;;16.55;;
59458;SDS011;45269;43.568;22.244;2023-11-21T10:53:40;28.80;;;24.90;;
59458;SDS011;45269;43.568;22.244;2023-11-21T10:56:08;17.85;;;16.10;;
59458;SDS011;45269;43.568;22.244;2023-11-21T10:58:36;20.60;;;18.50;;
59458;SDS011;45269;43.568;22.244;2023-11-21T11:01:03;25.67;;;22.98;;
59458;SDS011;45269;43.568;22.244;2023-11-21T11:03:31;28.35;;;25.65;;
59458;SDS011;45269;43.568;22.244;2023-11-21T11:05:58;9.90;;;8.90;;
59458;SDS011;45269;43.568;22.244;2023-11-21T11:08:24;20.50;;;18.48;;
59458;SDS011;45269;43.568;22.244;2023-11-21T11:10:51;33.60;;;30.35;;
59458;SDS011;45269;43.568;22.244;2023-11-21T11:13:17;41.85;;;36.60;;
59458;SDS011;45269;43.568;22.244;2023-11-21T11:15:43;41.35;;;32.92;;
59458;SDS011;45269;43.568;22.244;2023-11-21T11:18:12;40.17;;;31.17;;
59458;SDS011;45269;43.568;22.244;2023-11-21T11:20:38;20.83;;;17.30;;
59458;SDS011;45269;43.568;22.244;2023-11-21T11:23:13;15.38;;;13.73;;
59458;SDS011;45269;43.568;22.244;2023-11-21T11:28:27;11.85;;;10.38;;
59458;SDS011;45269;43.568;22.244;2023-11-21T11:38:32;30.60;;;27.50;;
59458;SDS011;45269;43.568;22.244;2023-11-21T11:41:03;51.35;;;46.05;;
59458;SDS011;45269;43.568;22.244;2023-11-21T11:43:29;14.68;;;13.10;;
59458;SDS011;45269;43.568;22.244;2023-11-21T11:45:56;20.45;;;18.25;;
59458;SDS011;45269;43.568;22.244;2023-11-21T11:48:22;22.83;;;18.45;;
59458;SDS011;45269;43.568;22.244;2023-11-21T11:51:03;10.38;;;8.52;;
59458;SDS011;45269;43.568;22.244;2023-11-21T11:53:32;22.85;;;19.73;;
59458;SDS011;45269;43.568;22.244;2023-11-21T11:58:23;27.43;;;18.53;;
59458;SDS011;45269;43.568;22.244;2023-11-21T12:01:06;12.65;;;11.10;;
59458;SDS011;45269;43.568;22.244;2023-11-21T12:03:31;41.80;;;31.80;;
59458;SDS011;45269;43.568;22.244;2023-11-21T12:05:58;28.00;;;20.90;;
59458;SDS011;45269;43.568;22.244;2023-11-21T12:08:23;28.90;;;23.48;;
59458;SDS011;45269;43.568;22.244;2023-11-21T12:10:56;68.80;;;53.17;;
59458;SDS011;45269;43.568;22.244;2023-11-21T12:13:22;54.10;;;47.90;;
59458;SDS011;45269;43.568;22.244;2023-11-21T12:15:48;41.25;;;36.85;;
59458;SDS011;45269;43.568;22.244;2023-11-21T12:18:14;32.75;;;29.38;;
59458;SDS011;45269;43.568;22.244;2023-11-21T12:20:39;18.42;;;16.50;;
59458;SDS011;45269;43.568;22.244;2023-11-21T12:23:06;21.80;;;19.17;;
59458;SDS011;45269;43.568;22.244;2023-11-21T12:25:34;25.10;;;22.55;;
59458;SDS011;45269;43.568;22.244;2023-11-21T12:28:00;32.40;;;26.08;;
59458;SDS011;45269;43.568;22.244;2023-11-21T12:30:26;50.75;;;36.33;;
59458;SDS011;45269;43.568;22.244;2023-11-21T12:32:56;41.13;;;33.58;;
59458;SDS011;45269;43.568;22.244;2023-11-21T12:35:23;46.10;;;41.20;;
59458;SDS011;45269;43.568;22.244;2023-11-21T12:37:49;39.13;;;35.05;;
59458;SDS011;45269;43.568;22.244;2023-11-21T12:40:17;49.67;;;44.45;;
59458;SDS011;45269;43.568;22.244;2023-11-21T12:42:43;26.35;;;23.65;;
59458;SDS011;45269;43.568;22.244;2023-11-21T12:47:43;23.65;;;21.02;;
59458;SDS011;45269;43.568;22.244;2023-11-21T12:50:10;25.27;;;22.80;;
59458;SDS011;45269;43.568;22.244;2023-11-21T12:52:42;94.00;;;72.90;;
59458;SDS011;45269;43.568;22.244;2023-11-21T12:55:09;113.35;;;82.80;;
59458;SDS011;45269;43.568;22.244;2023-11-21T12:57:34;64.07;;;49.92;;
59458;SDS011;45269;43.568;22.244;2023-11-21T13:00:03;87.00;;;76.22;;
59458;SDS011;45269;43.568;22.244;2023-11-21T13:02:36;89.93;;;80.50;;
59458;SDS011;45269;43.568;22.244;2023-11-21T13:05:03;67.13;;;59.17;;
59458;SDS011;45269;43.568;22.244;2023-11-21T13:07:40;59.35;;;50.97;;
59458;SDS011;45269;43.568;22.244;2023-11-21T13:10:11;82.65;;;69.40;;
59458;SDS011;45269;43.568;22.244;2023-11-21T13:12:37;99.43;;;83.40;;
59458;SDS011;45269;43.568;22.244;2023-11-21T13:15:07;104.45;;;90.43;;
59458;SDS011;45269;43.568;22.244;2023-11-21T13:17:33;85.40;;;73.03;;
59458;SDS011;45269;43.568;22.244;2023-11-21T13:19:59;81.95;;;71.05;;
59458;SDS011;45269;43.568;22.244;2023-11-21T13:22:30;88.78;;;79.00;;
59458;SDS011;45269;43.568;22.244;2023-11-21T13:24:58;155.05;;;130.32;;
59458;SDS011;45269;43.568;22.244;2023-11-21T13:27:23;132.50;;;114.10;;
59458;SDS011;45269;43.568;22.244;2023-11-21T13:29:50;98.25;;;86.53;;
59458;SDS011;45269;43.568;22.244;2023-11-21T13:32:16;101.03;;;89.75;;
59458;SDS011;45269;43.568;22.244;2023-11-21T13:34:45;206.45;;;182.77;;
59458;SDS011;45269;43.568;22.244;2023-11-21T13:37:12;150.77;;;132.18;;
59458;SDS011;45269;43.568;22.244;2023-11-21T13:39:38;70.43;;;62.67;;
59458;SDS011;45269;43.568;22.244;2023-11-21T13:42:09;49.50;;;44.20;;
59458;SDS011;45269;43.568;22.244;2023-11-21T13:44:36;54.85;;;49.28;;
59458;SDS011;45269;43.568;22.244;2023-11-21T13:47:03;58.17;;;49.85;;
59458;SDS011;45269;43.568;22.244;2023-11-21T13:49:30;64.00;;;53.90;;
59458;SDS011;45269;43.568;22.244;2023-11-21T13:52:01;105.65;;;89.60;;
59458;SDS011;45269;43.568;22.244;2023-11-21T13:54:27;112.47;;;94.97;;
59458;SDS011;45269;43.568;22.244;2023-11-21T13:56:54;119.82;;;97.47;;
59458;SDS011;45269;43.568;22.244;2023-11-21T13:59:20;73.50;;;59.72;;
59458;SDS011;45269;43.568;22.244;2023-11-21T14:01:50;88.57;;;76.43;;
59458;SDS011;45269;43.568;22.244;2023-11-21T14:04:28;76.95;;;66.10;;
59458;SDS011;45269;43.568;22.244;2023-11-21T14:07:20;71.68;;;63.88;;
59458;SDS011;45269;43.568;22.244;2023-11-21T14:09:51;64.13;;;57.15;;
59458;SDS011;45269;43.568;22.244;2023-11-21T14:12:18;83.68;;;74.55;;
59458;SDS011;45269;43.568;22.244;2023-11-21T14:14:43;100.03;;;84.30;;
59458;SDS011;45269;43.568;22.244;2023-11-21T14:17:10;87.57;;;75.43;;